TAF Text Data
IDs:
Format:
Raw Decoded Include METAR

Data at: 0126 UTC 19 Dec 2018

KALS 190052Z AUTO 03004KT 10SM CLR 01/M09 A3001 RMK AO2 SLP171 T00111089

KALS 182339Z 1900/1924 36009KT P6SM SCT150
  FM190200 VRB06KT P6SM BKN200